Time;durP1;ratioP1;P1;durP2;ratioP2;P2;SDS_P1;SDS_P2;PMS_P1;PMS_P2;Temp;Humidity;BMP_temperature;BMP_pressure;BME280_temperature;BME280_humidity;BME280_pressure;Samples;Min_cycle;Max_cycle;Signal;HPM_P1;HPM_P2
2022/07/17 00:00:51;;;;;;;;;;;16.20;43.00;;;;;;6254857;22;19908;-93
2022/07/17 00:03:16;;;;;;;;;;;16.10;43.00;;;;;;6252667;23;19991;-93
2022/07/17 00:05:43;;;;;;;;;;;16.10;43.10;;;;;;6254229;22;19915;-93
2022/07/17 00:08:09;;;;;;;;;;;16.00;43.10;;;;;;6228424;23;19908;-92
2022/07/17 00:10:35;;;;;;;;;;;15.90;43.20;;;;;;6227325;23;19926;-92
2022/07/17 00:13:02;;;;;;;;;;;15.90;43.50;;;;;;6228537;23;19908;-93
2022/07/17 00:15:30;;;;;;;;;;;15.80;43.60;;;;;;6229550;23;19917;-92
2022/07/17 00:17:56;;;;;;;;;;;15.80;43.70;;;;;;6239219;23;19911;-94
2022/07/17 00:20:23;;;;;;;;;;;15.70;43.80;;;;;;6234257;23;19954;-93
2022/07/17 00:22:49;;;;;;;;;;;15.70;43.90;;;;;;6253528;23;19994;-93
2022/07/17 00:25:14;;;;;;;;;;;15.70;43.90;;;;;;6253935;23;19942;-93
2022/07/17 00:27:40;;;;;;;;;;;15.60;43.90;;;;;;6254718;23;19990;-92
2022/07/17 00:30:07;;;;;;;;;;;15.50;44.00;;;;;;6253370;23;19918;-93
2022/07/17 00:32:33;;;;;;;;;;;15.50;44.10;;;;;;6254103;23;20213;-92
2022/07/17 00:34:58;;;;;;;;;;;15.50;44.10;;;;;;6254388;22;20072;-93
2022/07/17 00:37:24;;;;;;;;;;;15.40;44.10;;;;;;6254325;23;19904;-93
2022/07/17 00:39:49;;;;;;;;;;;15.40;44.30;;;;;;6253878;23;19938;-92
2022/07/17 00:42:16;;;;;;;;;;;15.40;44.50;;;;;;6255453;23;19926;-92
2022/07/17 00:44:42;;;;;;;;;;;15.30;44.40;;;;;;6227700;23;19961;-92
2022/07/17 00:47:14;;;;;;;;;;;15.30;44.40;;;;;;6225848;23;19904;-93
2022/07/17 00:49:40;;;;;;;;;;;15.20;44.50;;;;;;6253399;22;19966;-93
2022/07/17 00:52:07;;;;;;;;;;;15.20;44.70;;;;;;6227213;23;19951;-91
2022/07/17 00:54:34;;;;;;;;;;;15.20;44.70;;;;;;6253108;22;19912;-91
2022/07/17 00:57:01;;;;;;;;;;;15.20;44.90;;;;;;6255520;23;19955;-91
2022/07/17 00:59:29;;;;;;;;;;;15.20;44.90;;;;;;6227937;23;20339;-92
2022/07/17 01:01:55;;;;;;;;;;;15.10;44.90;;;;;;6227331;23;19904;-92
2022/07/17 01:04:20;;;;;;;;;;;15.10;45.00;;;;;;6255440;22;20335;-92
2022/07/17 01:10:04;;;;;;;;;;;15.00;45.20;;;;;;6192553;23;19917;-92
2022/07/17 01:12:30;;;;;;;;;;;15.00;45.40;;;;;;6227352;23;20296;-91
2022/07/17 01:14:55;;;;;;;;;;;15.00;45.70;;;;;;6254883;22;19912;-92
2022/07/17 01:17:21;;;;;;;;;;;15.00;45.90;;;;;;6257057;23;19963;-92
2022/07/17 01:19:46;;;;;;;;;;;15.00;45.80;;;;;;6228025;23;19911;-92
2022/07/17 01:22:12;;;;;;;;;;;14.90;45.80;;;;;;6228722;23;20201;-92
2022/07/17 01:24:41;;;;;;;;;;;14.90;45.90;;;;;;6252364;23;19935;-92
2022/07/17 01:27:06;;;;;;;;;;;14.90;46.00;;;;;;6226071;23;19953;-92
2022/07/17 01:29:32;;;;;;;;;;;14.80;46.00;;;;;;6251106;23;19950;-93
2022/07/17 01:31:57;;;;;;;;;;;14.80;46.60;;;;;;6250988;23;19927;-92
2022/07/17 01:34:29;;;;;;;;;;;14.80;46.70;;;;;;6260655;22;19915;-92
2022/07/17 01:36:54;;;;;;;;;;;14.80;46.70;;;;;;6254834;23;19910;-92
2022/07/17 01:42:04;;;;;;;;;;;14.70;46.50;;;;;;6253220;23;19967;-93
2022/07/17 01:44:33;;;;;;;;;;;14.70;46.50;;;;;;6254440;22;19911;-93
2022/07/17 01:46:59;;;;;;;;;;;14.60;46.50;;;;;;6253689;23;19904;-93
2022/07/17 01:49:24;;;;;;;;;;;14.60;46.60;;;;;;6254033;22;19919;-93
2022/07/17 01:51:50;;;;;;;;;;;14.50;46.70;;;;;;6226047;23;20335;-92
2022/07/17 01:54:15;;;;;;;;;;;14.50;46.70;;;;;;6249704;22;19986;-94
2022/07/17 01:56:41;;;;;;;;;;;14.50;46.70;;;;;;6251525;23;19914;-92
2022/07/17 01:59:06;;;;;;;;;;;14.40;46.70;;;;;;6252140;22;19904;-92
2022/07/17 02:01:32;;;;;;;;;;;14.40;46.80;;;;;;6251363;23;19907;-92
2022/07/17 02:04:00;;;;;;;;;;;14.40;46.80;;;;;;6252277;23;19904;-93
2022/07/17 02:06:25;;;;;;;;;;;14.40;47.10;;;;;;6226756;23;19918;-92
2022/07/17 02:08:51;;;;;;;;;;;14.30;47.10;;;;;;6252322;23;20309;-91
2022/07/17 02:11:17;;;;;;;;;;;14.30;47.20;;;;;;6254905;23;20061;-93
2022/07/17 02:13:42;;;;;;;;;;;14.30;47.20;;;;;;6227623;23;19914;-92
2022/07/17 02:16:08;;;;;;;;;;;14.30;47.30;;;;;;6251396;23;19908;-92
2022/07/17 02:18:33;;;;;;;;;;;14.20;47.40;;;;;;6226656;23;19918;-92
2022/07/17 02:21:05;;;;;;;;;;;14.20;47.60;;;;;;6250646;23;19912;-92
2022/07/17 02:23:30;;;;;;;;;;;14.20;47.80;;;;;;6225740;23;19911;-92
2022/07/17 02:25:56;;;;;;;;;;;14.20;47.80;;;;;;6250313;23;19927;-92
2022/07/17 02:28:21;;;;;;;;;;;14.20;47.80;;;;;;6250636;23;19961;-93
2022/07/17 02:30:47;;;;;;;;;;;14.10;47.80;;;;;;6251111;23;19920;-93
2022/07/17 02:33:12;;;;;;;;;;;14.10;47.80;;;;;;6255197;23;19919;-93
2022/07/17 02:35:40;;;;;;;;;;;14.00;47.80;;;;;;6250817;23;19990;-93
2022/07/17 02:38:06;;;;;;;;;;;14.00;47.70;;;;;;6225286;23;19983;-93
2022/07/17 02:40:32;;;;;;;;;;;14.00;47.70;;;;;;6234632;23;19903;-93
2022/07/17 02:42:57;;;;;;;;;;;14.00;47.70;;;;;;6251697;23;19939;-93
2022/07/17 02:45:24;;;;;;;;;;;14.00;47.70;;;;;;6254934;23;20277;-92
2022/07/17 02:47:50;;;;;;;;;;;14.00;48.20;;;;;;6250251;23;19950;-92
2022/07/17 02:50:16;;;;;;;;;;;14.00;48.30;;;;;;6224985;23;20321;-91
2022/07/17 02:52:43;;;;;;;;;;;14.00;48.40;;;;;;6250307;23;19926;-91
2022/07/17 02:55:09;;;;;;;;;;;14.00;48.30;;;;;;6252480;22;19917;-93
2022/07/17 02:57:35;;;;;;;;;;;14.00;48.60;;;;;;6225381;23;19926;-92
2022/07/17 03:00:03;;;;;;;;;;;13.90;48.80;;;;;;6225926;23;19911;-92
2022/07/17 03:02:29;;;;;;;;;;;13.90;48.80;;;;;;6225307;23;19934;-92
2022/07/17 03:04:54;;;;;;;;;;;13.80;48.80;;;;;;6251262;23;19927;-92
2022/07/17 03:07:20;;;;;;;;;;;13.90;48.60;;;;;;6251228;23;19922;-92
2022/07/17 03:09:45;;;;;;;;;;;13.80;48.60;;;;;;6250686;23;20317;-92
2022/07/17 03:12:14;;;;;;;;;;;13.80;48.80;;;;;;6251351;23;19918;-93
2022/07/17 03:14:39;;;;;;;;;;;13.80;49.00;;;;;;6225197;23;19912;-93
2022/07/17 03:17:05;;;;;;;;;;;13.80;48.90;;;;;;6252704;23;19971;-93
2022/07/17 03:19:30;;;;;;;;;;;13.80;48.90;;;;;;6250978;23;19958;-93
2022/07/17 03:21:56;;;;;;;;;;;13.70;48.80;;;;;;6252312;22;19912;-91
2022/07/17 03:24:21;;;;;;;;;;;13.70;48.80;;;;;;6250296;23;19978;-92
2022/07/17 03:26:47;;;;;;;;;;;13.70;48.80;;;;;;6250106;23;19912;-92
2022/07/17 03:29:12;;;;;;;;;;;13.70;48.80;;;;;;6250532;23;19904;-91
2022/07/17 03:31:39;;;;;;;;;;;13.80;48.90;;;;;;6250563;23;19960;-92
2022/07/17 03:34:05;;;;;;;;;;;13.80;49.00;;;;;;6251997;23;20316;-92
2022/07/17 03:36:31;;;;;;;;;;;13.80;49.30;;;;;;6251413;23;19912;-92
2022/07/17 03:38:56;;;;;;;;;;;13.80;49.50;;;;;;6254095;23;19915;-91
2022/07/17 03:41:22;;;;;;;;;;;13.80;49.80;;;;;;6253697;22;19939;-92
2022/07/17 03:43:48;;;;;;;;;;;13.80;49.90;;;;;;6254068;23;19908;-92
2022/07/17 03:46:14;;;;;;;;;;;13.90;50.30;;;;;;6252786;22;19964;-93
2022/07/17 03:48:39;;;;;;;;;;;14.00;50.40;;;;;;6252602;23;19908;-92
2022/07/17 03:51:05;;;;;;;;;;;14.10;50.60;;;;;;6254163;22;19912;-92
2022/07/17 03:53:30;;;;;;;;;;;14.30;50.90;;;;;;6252023;23;19908;-93
2022/07/17 03:55:56;;;;;;;;;;;14.50;51.30;;;;;;6252092;23;19903;-94
2022/07/17 03:58:21;;;;;;;;;;;14.70;51.70;;;;;;6253508;23;19908;-93
2022/07/17 04:00:50;;;;;;;;;;;15.00;51.80;;;;;;6252908;23;19914;-93
2022/07/17 04:03:15;;;;;;;;;;;15.30;51.90;;;;;;6255303;22;19915;-93
2022/07/17 04:05:40;;;;;;;;;;;15.60;52.00;;;;;;6254801;23;20243;-93
2022/07/17 04:08:08;;;;;;;;;;;15.90;51.90;;;;;;6253032;23;19931;-93
2022/07/17 04:10:35;;;;;;;;;;;16.20;51.10;;;;;;6252251;23;19919;-92
2022/07/17 04:13:00;;;;;;;;;;;16.20;50.30;;;;;;6251385;23;19911;-92
2022/07/17 04:18:13;;;;;;;;;;;16.20;49.30;;;;;;6255041;22;19914;-93
2022/07/17 04:20:39;;;;;;;;;;;16.10;49.10;;;;;;6254674;23;19931;-92
2022/07/17 04:23:05;;;;;;;;;;;16.10;48.90;;;;;;6255453;22;19907;-93
2022/07/17 04:25:30;;;;;;;;;;;16.00;49.00;;;;;;6252494;23;19931;-92
2022/07/17 04:28:01;;;;;;;;;;;16.00;49.00;;;;;;6253157;23;22577;-92
2022/07/17 04:30:26;;;;;;;;;;;16.00;49.10;;;;;;6253260;23;20330;-92
2022/07/17 04:32:52;;;;;;;;;;;16.00;49.30;;;;;;6253238;23;20305;-92
2022/07/17 04:35:17;;;;;;;;;;;16.00;49.50;;;;;;6225881;23;19955;-92
2022/07/17 04:37:43;;;;;;;;;;;16.00;49.70;;;;;;6254878;23;19911;-92
2022/07/17 04:40:10;;;;;;;;;;;16.20;50.10;;;;;;6251692;23;19977;-92
2022/07/17 04:42:35;;;;;;;;;;;16.20;50.00;;;;;;6226607;23;19947;-92
2022/07/17 04:45:01;;;;;;;;;;;16.30;49.70;;;;;;6252593;23;19919;-93
2022/07/17 04:47:26;;;;;;;;;;;16.30;50.00;;;;;;6252691;23;19903;-93
2022/07/17 04:49:52;;;;;;;;;;;16.70;51.10;;;;;;6252051;23;19916;-92
2022/07/17 04:52:17;;;;;;;;;;;17.00;51.30;;;;;;6252250;23;19908;-92
2022/07/17 04:54:43;;;;;;;;;;;17.30;51.10;;;;;;6251581;23;19912;-92
2022/07/17 04:57:08;;;;;;;;;;;17.70;51.40;;;;;;6254986;23;19914;-92
2022/07/17 04:59:36;;;;;;;;;;;18.20;51.80;;;;;;6252184;23;19946;-92
2022/07/17 05:02:03;;;;;;;;;;;18.80;52.00;;;;;;6229035;23;19898;-94
2022/07/17 05:04:29;;;;;;;;;;;19.50;51.80;;;;;;6228619;23;19919;-93
2022/07/17 05:06:55;;;;;;;;;;;20.20;51.10;;;;;;6226250;23;19904;-94
2022/07/17 05:09:20;;;;;;;;;;;20.80;50.50;;;;;;6226002;23;19920;-93
2022/07/17 05:11:46;;;;;;;;;;;21.50;49.30;;;;;;6226904;23;19966;-93
2022/07/17 05:14:11;;;;;;;;;;;22.10;48.30;;;;;;6251880;23;19962;-93
2022/07/17 05:16:37;;;;;;;;;;;22.80;46.90;;;;;;6258964;23;19967;-94
2022/07/17 05:19:03;;;;;;;;;;;23.30;45.70;;;;;;6221209;23;19899;-94
2022/07/17 05:21:31;;;;;;;;;;;23.90;44.80;;;;;;6265704;23;20304;-92
2022/07/17 05:23:57;;;;;;;;;;;24.40;43.20;;;;;;6227477;23;19997;-94
2022/07/17 05:26:23;;;;;;;;;;;24.90;42.60;;;;;;6253089;23;19994;-94
2022/07/17 05:28:49;;;;;;;;;;;25.50;41.70;;;;;;6234235;23;19922;-93
2022/07/17 05:31:14;;;;;;;;;;;26.00;41.10;;;;;;6237258;23;19916;-93
2022/07/17 05:33:49;;;;;;;;;;;26.60;40.20;;;;;;6258381;22;19902;-94
2022/07/17 05:36:15;;;;;;;;;;;27.10;38.80;;;;;;6267245;23;19922;-95
2022/07/17 05:38:40;;;;;;;;;;;27.60;37.30;;;;;;6257602;23;19911;-94
2022/07/17 05:41:06;;;;;;;;;;;27.90;37.20;;;;;;6263383;23;19903;-93
2022/07/17 05:43:32;;;;;;;;;;;28.40;36.20;;;;;;6254086;23;19935;-92
2022/07/17 05:45:58;;;;;;;;;;;28.70;35.30;;;;;;6206738;23;19908;-94
2022/07/17 05:48:25;;;;;;;;;;;29.10;34.20;;;;;;6238023;23;19907;-93
2022/07/17 05:50:51;;;;;;;;;;;29.30;33.50;;;;;;6229715;23;19916;-92
2022/07/17 05:53:19;;;;;;;;;;;29.70;33.00;;;;;;6257976;23;19904;-94
2022/07/17 05:55:51;;;;;;;;;;;29.90;32.30;;;;;;6263276;23;19911;-94
2022/07/17 05:58:16;;;;;;;;;;;29.80;31.60;;;;;;6231538;23;19987;-94
2022/07/17 06:00:42;;;;;;;;;;;29.70;31.10;;;;;;6254102;22;19915;-94
2022/07/17 06:03:09;;;;;;;;;;;29.50;31.00;;;;;;6256491;23;19934;-93
2022/07/17 06:05:37;;;;;;;;;;;29.40;31.10;;;;;;6232594;23;19912;-95
2022/07/17 06:08:03;;;;;;;;;;;29.30;31.30;;;;;;6235352;23;19951;-92
2022/07/17 06:10:42;;;;;;;;;;;29.30;31.10;;;;;;6230229;23;19920;-92
2022/07/17 06:13:19;;;;;;;;;;;29.40;31.10;;;;;;6253251;23;19907;-94
2022/07/17 06:15:44;;;;;;;;;;;29.20;30.50;;;;;;6253626;22;19995;-93
2022/07/17 06:18:10;;;;;;;;;;;28.80;30.30;;;;;;6253410;23;20340;-93
2022/07/17 06:20:35;;;;;;;;;;;28.50;30.30;;;;;;6253010;23;19947;-92
2022/07/17 06:23:01;;;;;;;;;;;28.10;30.60;;;;;;6251237;23;19904;-93
2022/07/17 06:25:26;;;;;;;;;;;27.80;30.90;;;;;;6251287;23;19967;-93
2022/07/17 06:27:52;;;;;;;;;;;27.70;31.10;;;;;;6251779;23;19957;-93
2022/07/17 06:30:17;;;;;;;;;;;27.50;31.20;;;;;;6252656;23;20082;-93
2022/07/17 06:32:43;;;;;;;;;;;27.40;31.30;;;;;;6228021;23;19926;-92
2022/07/17 06:35:12;;;;;;;;;;;27.30;31.30;;;;;;6254127;22;19943;-93
2022/07/17 06:37:37;;;;;;;;;;;27.20;31.50;;;;;;6255509;22;19998;-93
2022/07/17 06:40:04;;;;;;;;;;;27.20;31.60;;;;;;6253694;23;19915;-94
2022/07/17 06:42:30;;;;;;;;;;;27.20;31.80;;;;;;6256842;23;19918;-95
2022/07/17 06:44:55;;;;;;;;;;;27.20;32.00;;;;;;6202693;23;20325;-92
2022/07/17 06:47:21;;;;;;;;;;;27.50;32.50;;;;;;6255368;23;20292;-93
2022/07/17 06:49:46;;;;;;;;;;;28.00;32.90;;;;;;6254597;23;19915;-93
2022/07/17 06:52:12;;;;;;;;;;;28.70;32.90;;;;;;6228687;23;19896;-92
2022/07/17 06:54:37;;;;;;;;;;;29.40;32.60;;;;;;6253989;23;19910;-93
2022/07/17 06:57:03;;;;;;;;;;;30.20;31.80;;;;;;6253077;23;19995;-93
2022/07/17 06:59:28;;;;;;;;;;;30.90;31.10;;;;;;6253702;23;20290;-94
2022/07/17 07:01:54;;;;;;;;;;;31.70;30.10;;;;;;6253456;23;19908;-93
2022/07/17 07:07:23;;;;;;;;;;;32.70;28.20;;;;;;6256277;22;19987;-93
2022/07/17 07:09:48;;;;;;;;;;;33.30;27.70;;;;;;6253369;23;20075;-92
2022/07/17 07:12:14;;;;;;;;;;;33.80;27.20;;;;;;6253585;22;19991;-92
2022/07/17 07:14:39;;;;;;;;;;;34.30;26.40;;;;;;6261928;23;20320;-93
2022/07/17 07:17:05;;;;;;;;;;;34.70;25.80;;;;;;6256420;23;19957;-93
2022/07/17 07:19:30;;;;;;;;;;;35.10;25.10;;;;;;6258888;23;19935;-94
2022/07/17 07:21:57;;;;;;;;;;;35.40;24.50;;;;;;6262241;22;19943;-93
2022/07/17 07:24:22;;;;;;;;;;;35.80;24.10;;;;;;6256475;23;19908;-93
2022/07/17 07:26:48;;;;;;;;;;;36.10;23.30;;;;;;6256730;23;19954;-95
2022/07/17 07:29:13;;;;;;;;;;;36.30;22.50;;;;;;6254616;23;19908;-93
2022/07/17 07:31:38;;;;;;;;;;;36.50;22.50;;;;;;6256067;23;19911;-93
2022/07/17 07:34:04;;;;;;;;;;;36.80;22.60;;;;;;6255928;23;19914;-92
2022/07/17 07:36:30;;;;;;;;;;;37.20;22.20;;;;;;6253894;23;20342;-93
2022/07/17 07:38:55;;;;;;;;;;;37.60;21.90;;;;;;6256210;23;20035;-94
2022/07/17 07:41:21;;;;;;;;;;;38.00;21.90;;;;;;6258662;22;19919;-94
2022/07/17 07:43:47;;;;;;;;;;;38.40;21.30;;;;;;6256431;23;19910;-94
2022/07/17 07:46:12;;;;;;;;;;;38.70;20.80;;;;;;6257510;22;19908;-94
2022/07/17 07:48:38;;;;;;;;;;;39.10;20.60;;;;;;6255724;23;19957;-95
2022/07/17 07:51:03;;;;;;;;;;;39.40;20.40;;;;;;6258385;22;19963;-93
2022/07/17 07:53:29;;;;;;;;;;;39.80;20.20;;;;;;6257543;23;20336;-93
2022/07/17 07:55:54;;;;;;;;;;;40.10;19.00;;;;;;6259558;23;19928;-92
2022/07/17 07:58:20;;;;;;;;;;;40.40;19.10;;;;;;6257472;22;19911;-94
2022/07/17 08:00:46;;;;;;;;;;;40.60;19.00;;;;;;6259571;23;19963;-96
2022/07/17 08:03:12;;;;;;;;;;;40.80;18.30;;;;;;6260652;22;19908;-95
2022/07/17 08:05:37;;;;;;;;;;;41.20;18.20;;;;;;6261236;22;19911;-94
2022/07/17 08:08:03;;;;;;;;;;;41.40;18.20;;;;;;6260267;23;20324;-94
2022/07/17 08:10:29;;;;;;;;;;;41.70;17.70;;;;;;6235377;23;19938;-95
2022/07/17 08:12:54;;;;;;;;;;;41.80;17.70;;;;;;6236773;23;19895;-94
2022/07/17 08:15:20;;;;;;;;;;;42.00;17.50;;;;;;6260642;23;19919;-94
2022/07/17 08:17:47;;;;;;;;;;;42.00;17.40;;;;;;6237220;23;20327;-95
2022/07/17 08:23:15;;;;;;;;;;;42.50;17.10;;;;;;6263636;23;19933;-94
2022/07/17 08:25:41;;;;;;;;;;;42.70;16.60;;;;;;6254143;23;19904;-95
2022/07/17 08:28:07;;;;;;;;;;;42.80;16.30;;;;;;6253144;23;19977;-96
2022/07/17 08:33:35;;;;;;;;;;;43.00;16.40;;;;;;6257135;22;19902;-96
2022/07/17 08:36:01;;;;;;;;;;;43.20;16.30;;;;;;6254563;23;19912;-95
2022/07/17 08:38:29;;;;;;;;;;;43.40;15.90;;;;;;6255145;23;19907;-96
2022/07/17 08:41:01;;;;;;;;;;;43.60;15.90;;;;;;6254456;23;20237;-96
2022/07/17 08:43:29;;;;;;;;;;;43.70;15.80;;;;;;6255123;23;19904;-94
2022/07/17 08:45:56;;;;;;;;;;;43.80;15.00;;;;;;6254750;23;19917;-94
2022/07/17 08:48:26;;;;;;;;;;;43.80;15.10;;;;;;6230885;23;19903;-96
2022/07/17 08:50:52;;;;;;;;;;;43.90;15.30;;;;;;6230151;23;19970;-95
2022/07/17 08:53:17;;;;;;;;;;;44.00;14.90;;;;;;6254965;23;19908;-95
2022/07/17 08:55:43;;;;;;;;;;;44.00;14.80;;;;;;6253877;23;19912;-94
2022/07/17 08:58:14;;;;;;;;;;;43.90;14.70;;;;;;6253968;23;19913;-94
2022/07/17 09:00:40;;;;;;;;;;;43.80;14.40;;;;;;6228277;22;19916;-94
2022/07/17 09:03:06;;;;;;;;;;;43.60;14.20;;;;;;6252930;23;19927;-94
2022/07/17 09:05:36;;;;;;;;;;;43.40;14.40;;;;;;6229343;23;19965;-94
2022/07/17 09:08:02;;;;;;;;;;;43.20;14.10;;;;;;6229225;23;20029;-95
2022/07/17 09:10:38;;;;;;;;;;;42.90;14.40;;;;;;6227798;23;19923;-94
2022/07/17 09:13:19;;;;;;;;;;;42.80;14.20;;;;;;6228604;22;19982;-94
2022/07/17 09:15:51;;;;;;;;;;;42.80;14.60;;;;;;6232025;23;19939;-94
2022/07/17 09:18:17;;;;;;;;;;;42.70;14.40;;;;;;6230977;22;19908;-93
2022/07/17 09:20:50;;;;;;;;;;;42.60;14.30;;;;;;6255642;22;19950;-94
2022/07/17 09:23:18;;;;;;;;;;;42.30;14.60;;;;;;6229798;23;19903;-95
2022/07/17 09:25:45;;;;;;;;;;;42.30;14.80;;;;;;6230112;23;19957;-95
2022/07/17 09:28:12;;;;;;;;;;;42.20;14.90;;;;;;6255572;23;20335;-95
2022/07/17 09:30:39;;;;;;;;;;;42.10;14.60;;;;;;6230528;23;19965;-95
2022/07/17 09:33:12;;;;;;;;;;;41.90;14.50;;;;;;6231885;23;19915;-94
2022/07/17 09:35:52;;;;;;;;;;;42.00;14.80;;;;;;6231528;23;19908;-94
2022/07/17 09:38:25;;;;;;;;;;;42.10;14.50;;;;;;6231202;23;19915;-95
2022/07/17 09:41:09;;;;;;;;;;;42.20;14.20;;;;;;6230609;23;19912;-96
2022/07/17 09:43:50;;;;;;;;;;;42.50;14.10;;;;;;6230230;23;20316;-95
2022/07/17 09:46:18;;;;;;;;;;;42.80;14.10;;;;;;6229529;23;19918;-95
2022/07/17 09:48:47;;;;;;;;;;;42.80;13.70;;;;;;6234462;23;19888;-95
2022/07/17 09:51:15;;;;;;;;;;;42.70;13.60;;;;;;6257775;22;19920;-94
2022/07/17 09:53:44;;;;;;;;;;;42.70;13.50;;;;;;6229986;23;19930;-94
2022/07/17 09:56:10;;;;;;;;;;;42.70;13.60;;;;;;6231841;23;19915;-94
2022/07/17 09:58:40;;;;;;;;;;;42.80;13.60;;;;;;6228983;23;19910;-93
2022/07/17 10:01:08;;;;;;;;;;;43.00;13.60;;;;;;6231273;23;19965;-93
2022/07/17 10:03:34;;;;;;;;;;;42.90;13.30;;;;;;6253564;23;19904;-94
2022/07/17 10:06:01;;;;;;;;;;;42.70;13.00;;;;;;6256169;22;19946;-93
2022/07/17 10:08:27;;;;;;;;;;;42.30;13.20;;;;;;6229742;23;20313;-94
2022/07/17 10:10:53;;;;;;;;;;;42.20;13.40;;;;;;6229901;23;19911;-94
2022/07/17 10:13:19;;;;;;;;;;;42.30;13.70;;;;;;6256782;22;19918;-95
2022/07/17 10:15:45;;;;;;;;;;;42.60;13.60;;;;;;6253403;23;19903;-94
2022/07/17 10:18:10;;;;;;;;;;;42.80;13.30;;;;;;6230075;23;19911;-94
2022/07/17 10:20:36;;;;;;;;;;;43.20;13.00;;;;;;6253541;22;20213;-95
2022/07/17 10:23:11;;;;;;;;;;;43.40;12.90;;;;;;6255736;23;19915;-94
2022/07/17 10:25:38;;;;;;;;;;;43.60;13.00;;;;;;6230073;23;19930;-92
2022/07/17 10:28:03;;;;;;;;;;;43.80;13.00;;;;;;6253338;23;19919;-94
2022/07/17 10:30:31;;;;;;;;;;;43.60;12.20;;;;;;6254333;23;20271;-94
2022/07/17 10:32:58;;;;;;;;;;;43.30;12.00;;;;;;6227474;23;20237;-95
2022/07/17 10:35:24;;;;;;;;;;;43.20;12.30;;;;;;6231640;23;19936;-94
2022/07/17 10:37:50;;;;;;;;;;;43.10;11.80;;;;;;6231186;23;19924;-94
2022/07/17 10:40:28;;;;;;;;;;;42.80;11.60;;;;;;6264978;23;19945;-93
2022/07/17 10:46:05;;;;;;;;;;;42.20;12.10;;;;;;6202886;23;19944;-95
2022/07/17 10:48:31;;;;;;;;;;;42.20;12.50;;;;;;6250622;22;19895;-96
2022/07/17 10:51:00;;;;;;;;;;;42.10;12.70;;;;;;6261358;23;19895;-93
2022/07/17 10:53:29;;;;;;;;;;;42.10;12.50;;;;;;6206277;23;19959;-94
2022/07/17 10:55:54;;;;;;;;;;;42.20;12.70;;;;;;6235959;23;19911;-93
2022/07/17 10:58:37;;;;;;;;;;;42.30;12.70;;;;;;6234279;23;19959;-94
2022/07/17 11:01:16;;;;;;;;;;;42.30;12.70;;;;;;6233550;23;19911;-93
2022/07/17 11:03:41;;;;;;;;;;;42.30;12.80;;;;;;6233286;23;20387;-93
2022/07/17 11:06:07;;;;;;;;;;;42.30;13.00;;;;;;6233902;23;19912;-93
2022/07/17 11:08:34;;;;;;;;;;;42.60;13.00;;;;;;6233139;23;19904;-93
2022/07/17 11:11:00;;;;;;;;;;;43.10;13.00;;;;;;6232660;23;19920;-94
2022/07/17 11:13:25;;;;;;;;;;;43.40;12.40;;;;;;6258548;23;19991;-94
2022/07/17 11:15:51;;;;;;;;;;;43.50;12.50;;;;;;6259058;23;19912;-94
2022/07/17 11:18:19;;;;;;;;;;;44.00;12.40;;;;;;6262490;23;19904;-93
2022/07/17 11:20:48;;;;;;;;;;;44.00;11.80;;;;;;6235602;23;20232;-94
2022/07/17 11:23:17;;;;;;;;;;;43.70;11.90;;;;;;6236651;23;19942;-93
2022/07/17 11:25:53;;;;;;;;;;;43.20;12.30;;;;;;6259760;23;19915;-93
2022/07/17 11:28:35;;;;;;;;;;;42.80;12.40;;;;;;6235933;23;19903;-93
2022/07/17 11:31:02;;;;;;;;;;;42.50;12.80;;;;;;6235442;23;19915;-93
2022/07/17 11:33:27;;;;;;;;;;;42.30;12.90;;;;;;6235037;23;19904;-94
2022/07/17 11:35:55;;;;;;;;;;;42.30;12.90;;;;;;6260534;23;19942;-95
2022/07/17 11:38:26;;;;;;;;;;;42.50;13.00;;;;;;6259110;23;19904;-94
2022/07/17 11:40:51;;;;;;;;;;;42.80;12.90;;;;;;6231107;23;19911;-93
2022/07/17 11:43:17;;;;;;;;;;;42.80;12.60;;;;;;6233291;23;19927;-94
2022/07/17 11:45:43;;;;;;;;;;;43.00;12.80;;;;;;6258064;23;20239;-93
2022/07/17 11:48:08;;;;;;;;;;;43.20;12.70;;;;;;6235267;23;19911;-94
2022/07/17 11:50:34;;;;;;;;;;;43.30;12.40;;;;;;6258988;23;19943;-95
2022/07/17 11:53:01;;;;;;;;;;;43.50;12.30;;;;;;6259020;23;19903;-93
2022/07/17 11:55:34;;;;;;;;;;;43.60;12.30;;;;;;6236456;23;19911;-94
2022/07/17 11:58:00;;;;;;;;;;;44.00;12.40;;;;;;6261428;22;19911;-94
2022/07/17 12:00:25;;;;;;;;;;;44.30;12.20;;;;;;6259990;23;19979;-94
2022/07/17 12:03:02;;;;;;;;;;;44.60;12.00;;;;;;6258651;23;19912;-95
2022/07/17 12:05:28;;;;;;;;;;;44.70;11.50;;;;;;6210397;23;19982;-95
2022/07/17 12:07:54;;;;;;;;;;;44.70;11.40;;;;;;6230754;23;19918;-93
2022/07/17 12:10:21;;;;;;;;;;;44.50;11.50;;;;;;6231541;23;19915;-94
2022/07/17 12:15:50;;;;;;;;;;;44.60;11.40;;;;;;6256299;23;19953;-94
2022/07/17 12:18:23;;;;;;;;;;;44.10;11.30;;;;;;6253473;23;19959;-94
2022/07/17 12:20:51;;;;;;;;;;;43.50;11.50;;;;;;6229188;23;19943;-94
2022/07/17 12:23:30;;;;;;;;;;;43.10;11.90;;;;;;6229767;23;19911;-94
2022/07/17 12:26:04;;;;;;;;;;;42.90;12.20;;;;;;6259299;23;19904;-93
2022/07/17 12:28:30;;;;;;;;;;;43.00;12.30;;;;;;6229899;23;19922;-94
2022/07/17 12:30:58;;;;;;;;;;;43.30;12.50;;;;;;6256609;23;19907;-93
2022/07/17 12:33:24;;;;;;;;;;;43.60;12.20;;;;;;6255739;23;20033;-93
2022/07/17 12:35:50;;;;;;;;;;;43.30;12.10;;;;;;6257693;23;19904;-94
2022/07/17 12:38:16;;;;;;;;;;;42.80;12.20;;;;;;6255098;23;19939;-94
2022/07/17 12:40:41;;;;;;;;;;;42.80;12.40;;;;;;6228793;23;20343;-93
2022/07/17 12:43:08;;;;;;;;;;;43.00;12.40;;;;;;6255185;23;19912;-94
2022/07/17 12:45:34;;;;;;;;;;;43.00;12.40;;;;;;6230284;23;19903;-94
2022/07/17 12:47:59;;;;;;;;;;;43.20;12.50;;;;;;6228758;23;20301;-93
2022/07/17 12:50:25;;;;;;;;;;;43.50;12.30;;;;;;6256427;22;19912;-94
2022/07/17 12:52:51;;;;;;;;;;;43.50;11.70;;;;;;6257195;22;19960;-94
2022/07/17 12:55:22;;;;;;;;;;;43.40;11.80;;;;;;6256200;23;19910;-93
2022/07/17 12:57:48;;;;;;;;;;;43.20;11.80;;;;;;6208234;23;19939;-93
2022/07/17 13:00:14;;;;;;;;;;;43.00;11.70;;;;;;6258093;23;19910;-90
2022/07/17 13:02:39;;;;;;;;;;;43.10;11.90;;;;;;6258368;23;19990;-94
2022/07/17 13:05:05;;;;;;;;;;;43.20;12.00;;;;;;6235064;23;19956;-95
2022/07/17 13:07:31;;;;;;;;;;;43.30;12.10;;;;;;6231105;23;19903;-93
2022/07/17 13:12:59;;;;;;;;;;;43.70;11.70;;;;;;6255270;23;19914;-93
2022/07/17 13:15:27;;;;;;;;;;;43.60;11.70;;;;;;6262814;23;19912;-93
2022/07/17 13:17:53;;;;;;;;;;;43.50;11.40;;;;;;6231722;23;20370;-94
2022/07/17 13:20:22;;;;;;;;;;;43.10;11.30;;;;;;6229125;23;19947;-92
2022/07/17 13:22:47;;;;;;;;;;;42.60;11.30;;;;;;6262496;23;19903;-93
2022/07/17 13:25:13;;;;;;;;;;;42.20;11.60;;;;;;6260961;23;20351;-93
2022/07/17 13:27:38;;;;;;;;;;;42.10;11.70;;;;;;6250564;23;19956;-93
2022/07/17 13:30:04;;;;;;;;;;;41.90;11.70;;;;;;6252510;22;19912;-92
2022/07/17 13:32:29;;;;;;;;;;;41.80;11.90;;;;;;6227755;23;19908;-93
2022/07/17 13:34:55;;;;;;;;;;;41.80;11.80;;;;;;6252337;23;19904;-94
2022/07/17 13:37:20;;;;;;;;;;;41.50;12.00;;;;;;6227070;23;19900;-92
2022/07/17 13:39:46;;;;;;;;;;;41.30;12.20;;;;;;6254262;23;20225;-92
2022/07/17 13:42:11;;;;;;;;;;;41.30;12.30;;;;;;6253136;23;19927;-91
2022/07/17 13:44:37;;;;;;;;;;;41.30;12.20;;;;;;6253090;23;19911;-93
2022/07/17 13:47:02;;;;;;;;;;;41.20;12.30;;;;;;6254577;23;19912;-94
2022/07/17 13:49:37;;;;;;;;;;;41.30;12.40;;;;;;6252109;23;20319;-95
2022/07/17 13:52:03;;;;;;;;;;;41.40;12.30;;;;;;6256037;22;19911;-93
2022/07/17 13:54:28;;;;;;;;;;;41.60;12.40;;;;;;6256290;23;19896;-94
2022/07/17 13:56:54;;;;;;;;;;;41.80;12.40;;;;;;6256859;23;19934;-91
2022/07/17 13:59:20;;;;;;;;;;;42.00;12.40;;;;;;6252545;23;19911;-92
2022/07/17 14:01:45;;;;;;;;;;;42.10;12.10;;;;;;6254281;23;20039;-93
2022/07/17 14:04:11;;;;;;;;;;;41.80;12.20;;;;;;6254386;23;20312;-93
2022/07/17 14:06:36;;;;;;;;;;;41.80;12.30;;;;;;6255356;23;19910;-93
2022/07/17 14:09:02;;;;;;;;;;;41.90;12.40;;;;;;6250022;23;19918;-93
2022/07/17 14:11:28;;;;;;;;;;;42.00;12.20;;;;;;6229290;23;19911;-93
2022/07/17 14:13:53;;;;;;;;;;;42.00;12.30;;;;;;6203863;23;19993;-92
2022/07/17 14:16:19;;;;;;;;;;;41.90;12.30;;;;;;6252316;23;20336;-93
2022/07/17 14:19:02;;;;;;;;;;;41.60;12.20;;;;;;6253465;23;19974;-93
2022/07/17 14:21:29;;;;;;;;;;;40.70;12.60;;;;;;6254830;23;19908;-93
2022/07/17 14:23:54;;;;;;;;;;;40.00;12.80;;;;;;6229574;23;19994;-94
2022/07/17 14:26:20;;;;;;;;;;;39.40;13.10;;;;;;6252846;23;19911;-92
2022/07/17 14:28:45;;;;;;;;;;;38.90;13.40;;;;;;6257889;23;19911;-91
2022/07/17 14:31:11;;;;;;;;;;;38.30;13.80;;;;;;6259071;23;19917;-93
2022/07/17 14:33:37;;;;;;;;;;;37.80;14.30;;;;;;6230346;23;19907;-92
2022/07/17 14:36:02;;;;;;;;;;;37.20;14.70;;;;;;6254982;23;20304;-93
2022/07/17 14:38:28;;;;;;;;;;;36.60;15.00;;;;;;6257958;22;19918;-93
2022/07/17 14:40:53;;;;;;;;;;;36.10;15.30;;;;;;6253166;23;19911;-93